sensor_id;sensor_type;location;lat;lon;timestamp;P1;durP1;ratioP1;P2;durP2;ratioP2
21786;SDS011;11055;50.870;4.316;2022-12-10T00:01:17;52.88;;;26.58;;
21786;SDS011;11055;50.870;4.316;2022-12-10T00:03:43;55.55;;;28.00;;
21786;SDS011;11055;50.870;4.316;2022-12-10T00:06:11;57.47;;;27.90;;
21786;SDS011;11055;50.870;4.316;2022-12-10T00:08:44;51.72;;;26.95;;
21786;SDS011;11055;50.870;4.316;2022-12-10T00:11:11;57.47;;;28.33;;
21786;SDS011;11055;50.870;4.316;2022-12-10T00:13:38;57.22;;;29.38;;
21786;SDS011;11055;50.870;4.316;2022-12-10T00:16:05;51.65;;;28.45;;
21786;SDS011;11055;50.870;4.316;2022-12-10T00:18:32;57.13;;;30.45;;
21786;SDS011;11055;50.870;4.316;2022-12-10T00:21:01;58.60;;;29.15;;
21786;SDS011;11055;50.870;4.316;2022-12-10T00:23:31;61.67;;;30.98;;
21786;SDS011;11055;50.870;4.316;2022-12-10T00:26:13;65.20;;;30.05;;
21786;SDS011;11055;50.870;4.316;2022-12-10T00:28:40;63.40;;;31.75;;
21786;SDS011;11055;50.870;4.316;2022-12-10T00:31:08;62.13;;;31.33;;
21786;SDS011;11055;50.870;4.316;2022-12-10T00:33:39;64.38;;;32.45;;
21786;SDS011;11055;50.870;4.316;2022-12-10T00:36:07;67.20;;;31.65;;
21786;SDS011;11055;50.870;4.316;2022-12-10T00:38:35;66.47;;;31.45;;
21786;SDS011;11055;50.870;4.316;2022-12-10T00:41:02;66.28;;;32.88;;
21786;SDS011;11055;50.870;4.316;2022-12-10T00:43:28;67.03;;;32.67;;
21786;SDS011;11055;50.870;4.316;2022-12-10T00:45:54;67.50;;;32.70;;
21786;SDS011;11055;50.870;4.316;2022-12-10T00:48:20;59.53;;;30.70;;
21786;SDS011;11055;50.870;4.316;2022-12-10T00:51:00;63.70;;;31.10;;
21786;SDS011;11055;50.870;4.316;2022-12-10T00:53:28;69.25;;;33.75;;
21786;SDS011;11055;50.870;4.316;2022-12-10T00:55:54;67.72;;;32.40;;
21786;SDS011;11055;50.870;4.316;2022-12-10T00:58:20;65.18;;;33.00;;
21786;SDS011;11055;50.870;4.316;2022-12-10T01:00:46;63.30;;;30.88;;
21786;SDS011;11055;50.870;4.316;2022-12-10T01:03:12;63.00;;;33.35;;
21786;SDS011;11055;50.870;4.316;2022-12-10T01:05:38;63.47;;;32.15;;
21786;SDS011;11055;50.870;4.316;2022-12-10T01:08:04;65.32;;;33.20;;
21786;SDS011;11055;50.870;4.316;2022-12-10T01:10:29;65.93;;;34.33;;
21786;SDS011;11055;50.870;4.316;2022-12-10T01:12:55;63.13;;;32.38;;
21786;SDS011;11055;50.870;4.316;2022-12-10T01:15:21;63.50;;;33.55;;
21786;SDS011;11055;50.870;4.316;2022-12-10T01:17:47;73.55;;;34.63;;
21786;SDS011;11055;50.870;4.316;2022-12-10T01:20:12;67.53;;;34.78;;
21786;SDS011;11055;50.870;4.316;2022-12-10T01:22:38;64.45;;;34.92;;
21786;SDS011;11055;50.870;4.316;2022-12-10T01:25:04;73.60;;;36.65;;
21786;SDS011;11055;50.870;4.316;2022-12-10T01:27:30;69.15;;;34.65;;
21786;SDS011;11055;50.870;4.316;2022-12-10T01:29:56;68.53;;;35.45;;
21786;SDS011;11055;50.870;4.316;2022-12-10T01:32:21;65.13;;;34.47;;
21786;SDS011;11055;50.870;4.316;2022-12-10T01:34:47;70.78;;;36.15;;
21786;SDS011;11055;50.870;4.316;2022-12-10T01:37:13;70.63;;;35.50;;
21786;SDS011;11055;50.870;4.316;2022-12-10T01:39:39;61.70;;;32.67;;
21786;SDS011;11055;50.870;4.316;2022-12-10T01:42:04;67.47;;;35.10;;
21786;SDS011;11055;50.870;4.316;2022-12-10T01:46:57;74.63;;;34.08;;
21786;SDS011;11055;50.870;4.316;2022-12-10T01:51:59;69.63;;;34.20;;
21786;SDS011;11055;50.870;4.316;2022-12-10T01:54:29;71.05;;;36.13;;
21786;SDS011;11055;50.870;4.316;2022-12-10T01:59:26;66.18;;;34.33;;
21786;SDS011;11055;50.870;4.316;2022-12-10T02:02:11;72.75;;;36.38;;
21786;SDS011;11055;50.870;4.316;2022-12-10T02:04:56;64.78;;;34.42;;
21786;SDS011;11055;50.870;4.316;2022-12-10T02:10:42;66.07;;;33.10;;
21786;SDS011;11055;50.870;4.316;2022-12-10T02:13:27;64.07;;;35.53;;
21786;SDS011;11055;50.870;4.316;2022-12-10T02:16:25;70.68;;;36.28;;
21786;SDS011;11055;50.870;4.316;2022-12-10T02:19:14;63.60;;;34.95;;
21786;SDS011;11055;50.870;4.316;2022-12-10T02:21:42;68.45;;;34.40;;
21786;SDS011;11055;50.870;4.316;2022-12-10T02:24:13;75.38;;;36.03;;
21786;SDS011;11055;50.870;4.316;2022-12-10T02:29:30;70.50;;;36.67;;
21786;SDS011;11055;50.870;4.316;2022-12-10T02:32:01;68.43;;;37.47;;
21786;SDS011;11055;50.870;4.316;2022-12-10T02:34:37;79.28;;;38.50;;
21786;SDS011;11055;50.870;4.316;2022-12-10T02:40:08;73.63;;;38.17;;
21786;SDS011;11055;50.870;4.316;2022-12-10T02:42:40;70.72;;;34.67;;
21786;SDS011;11055;50.870;4.316;2022-12-10T02:45:09;76.22;;;37.13;;
21786;SDS011;11055;50.870;4.316;2022-12-10T02:47:35;68.57;;;36.22;;
21786;SDS011;11055;50.870;4.316;2022-12-10T02:50:03;81.22;;;40.15;;
21786;SDS011;11055;50.870;4.316;2022-12-10T02:52:31;78.90;;;40.67;;
21786;SDS011;11055;50.870;4.316;2022-12-10T02:54:56;77.97;;;39.17;;
21786;SDS011;11055;50.870;4.316;2022-12-10T03:00:26;79.40;;;40.00;;
21786;SDS011;11055;50.870;4.316;2022-12-10T03:06:26;84.50;;;41.03;;
21786;SDS011;11055;50.870;4.316;2022-12-10T03:09:04;85.63;;;39.20;;
21786;SDS011;11055;50.870;4.316;2022-12-10T03:11:33;86.22;;;41.67;;
21786;SDS011;11055;50.870;4.316;2022-12-10T03:16:55;76.90;;;37.20;;
21786;SDS011;11055;50.870;4.316;2022-12-10T03:19:28;81.07;;;37.38;;
21786;SDS011;11055;50.870;4.316;2022-12-10T03:22:07;81.50;;;39.25;;
21786;SDS011;11055;50.870;4.316;2022-12-10T03:24:35;84.63;;;39.05;;
21786;SDS011;11055;50.870;4.316;2022-12-10T03:27:01;83.22;;;38.45;;
21786;SDS011;11055;50.870;4.316;2022-12-10T03:29:33;80.95;;;37.55;;
21786;SDS011;11055;50.870;4.316;2022-12-10T03:32:04;85.82;;;38.72;;
21786;SDS011;11055;50.870;4.316;2022-12-10T03:34:30;90.47;;;40.42;;
21786;SDS011;11055;50.870;4.316;2022-12-10T03:36:56;95.88;;;41.13;;
21786;SDS011;11055;50.870;4.316;2022-12-10T03:39:24;94.65;;;42.33;;
21786;SDS011;11055;50.870;4.316;2022-12-10T03:41:50;93.28;;;41.22;;
21786;SDS011;11055;50.870;4.316;2022-12-10T03:44:26;90.85;;;40.17;;
21786;SDS011;11055;50.870;4.316;2022-12-10T03:46:53;81.70;;;37.63;;
21786;SDS011;11055;50.870;4.316;2022-12-10T03:49:19;78.97;;;35.90;;
21786;SDS011;11055;50.870;4.316;2022-12-10T03:51:45;85.90;;;37.35;;
21786;SDS011;11055;50.870;4.316;2022-12-10T03:54:10;82.47;;;37.03;;
21786;SDS011;11055;50.870;4.316;2022-12-10T03:56:36;93.10;;;37.72;;
21786;SDS011;11055;50.870;4.316;2022-12-10T03:59:02;88.15;;;37.00;;
21786;SDS011;11055;50.870;4.316;2022-12-10T04:01:28;103.47;;;39.63;;
21786;SDS011;11055;50.870;4.316;2022-12-10T04:03:54;101.90;;;38.13;;
21786;SDS011;11055;50.870;4.316;2022-12-10T04:06:20;90.32;;;39.15;;
21786;SDS011;11055;50.870;4.316;2022-12-10T04:08:46;88.75;;;38.20;;
21786;SDS011;11055;50.870;4.316;2022-12-10T04:11:13;89.75;;;36.83;;
21786;SDS011;11055;50.870;4.316;2022-12-10T04:13:40;86.15;;;37.05;;
21786;SDS011;11055;50.870;4.316;2022-12-10T04:16:32;86.95;;;36.25;;
21786;SDS011;11055;50.870;4.316;2022-12-10T04:19:01;81.28;;;34.40;;
21786;SDS011;11055;50.870;4.316;2022-12-10T04:21:29;85.63;;;36.70;;
21786;SDS011;11055;50.870;4.316;2022-12-10T04:24:16;82.28;;;33.75;;
21786;SDS011;11055;50.870;4.316;2022-12-10T04:27:08;85.00;;;34.40;;
21786;SDS011;11055;50.870;4.316;2022-12-10T04:29:54;84.38;;;35.50;;
21786;SDS011;11055;50.870;4.316;2022-12-10T04:32:21;90.07;;;36.13;;
21786;SDS011;11055;50.870;4.316;2022-12-10T04:34:47;88.90;;;38.10;;
21786;SDS011;11055;50.870;4.316;2022-12-10T04:37:13;88.55;;;37.45;;
21786;SDS011;11055;50.870;4.316;2022-12-10T04:39:40;87.93;;;37.38;;
21786;SDS011;11055;50.870;4.316;2022-12-10T04:42:06;91.55;;;38.17;;
21786;SDS011;11055;50.870;4.316;2022-12-10T04:44:32;94.15;;;38.42;;
21786;SDS011;11055;50.870;4.316;2022-12-10T04:46:58;91.13;;;36.55;;
21786;SDS011;11055;50.870;4.316;2022-12-10T04:49:24;95.15;;;37.83;;
21786;SDS011;11055;50.870;4.316;2022-12-10T04:51:50;90.53;;;37.08;;
21786;SDS011;11055;50.870;4.316;2022-12-10T04:54:17;92.40;;;38.17;;
21786;SDS011;11055;50.870;4.316;2022-12-10T04:56:44;83.75;;;36.33;;
21786;SDS011;11055;50.870;4.316;2022-12-10T04:59:10;94.85;;;37.85;;
21786;SDS011;11055;50.870;4.316;2022-12-10T05:01:36;86.90;;;35.03;;
21786;SDS011;11055;50.870;4.316;2022-12-10T05:04:03;97.15;;;37.50;;
21786;SDS011;11055;50.870;4.316;2022-12-10T05:06:31;88.38;;;35.90;;
21786;SDS011;11055;50.870;4.316;2022-12-10T05:08:58;92.15;;;34.80;;
21786;SDS011;11055;50.870;4.316;2022-12-10T05:11:25;93.15;;;37.85;;
21786;SDS011;11055;50.870;4.316;2022-12-10T05:13:53;88.03;;;37.55;;
21786;SDS011;11055;50.870;4.316;2022-12-10T05:16:19;85.97;;;34.25;;
21786;SDS011;11055;50.870;4.316;2022-12-10T05:18:46;94.65;;;34.90;;
21786;SDS011;11055;50.870;4.316;2022-12-10T05:21:13;113.85;;;37.55;;
21786;SDS011;11055;50.870;4.316;2022-12-10T05:23:44;92.65;;;36.25;;
21786;SDS011;11055;50.870;4.316;2022-12-10T05:28:49;91.95;;;39.35;;
21786;SDS011;11055;50.870;4.316;2022-12-10T05:31:18;89.47;;;35.35;;
21786;SDS011;11055;50.870;4.316;2022-12-10T05:33:44;79.40;;;33.20;;
21786;SDS011;11055;50.870;4.316;2022-12-10T05:36:11;89.50;;;35.03;;
21786;SDS011;11055;50.870;4.316;2022-12-10T05:38:39;82.32;;;34.00;;
21786;SDS011;11055;50.870;4.316;2022-12-10T05:41:10;93.72;;;36.60;;
21786;SDS011;11055;50.870;4.316;2022-12-10T05:43:38;89.68;;;34.92;;
21786;SDS011;11055;50.870;4.316;2022-12-10T05:46:05;92.95;;;35.75;;
21786;SDS011;11055;50.870;4.316;2022-12-10T05:48:32;84.63;;;35.28;;
21786;SDS011;11055;50.870;4.316;2022-12-10T05:51:02;98.78;;;34.00;;
21786;SDS011;11055;50.870;4.316;2022-12-10T05:53:30;91.07;;;33.95;;
21786;SDS011;11055;50.870;4.316;2022-12-10T05:56:03;91.45;;;36.80;;
21786;SDS011;11055;50.870;4.316;2022-12-10T05:58:34;88.32;;;33.47;;
21786;SDS011;11055;50.870;4.316;2022-12-10T06:00:59;91.50;;;33.90;;
21786;SDS011;11055;50.870;4.316;2022-12-10T06:03:28;90.97;;;35.05;;
21786;SDS011;11055;50.870;4.316;2022-12-10T06:05:54;87.50;;;33.42;;
21786;SDS011;11055;50.870;4.316;2022-12-10T06:08:20;84.72;;;34.13;;
21786;SDS011;11055;50.870;4.316;2022-12-10T06:10:45;86.18;;;31.20;;
21786;SDS011;11055;50.870;4.316;2022-12-10T06:13:11;85.00;;;34.50;;
21786;SDS011;11055;50.870;4.316;2022-12-10T06:15:40;90.85;;;34.92;;
21786;SDS011;11055;50.870;4.316;2022-12-10T06:18:06;92.97;;;35.13;;
21786;SDS011;11055;50.870;4.316;2022-12-10T06:20:33;139.95;;;34.35;;
21786;SDS011;11055;50.870;4.316;2022-12-10T06:22:59;93.03;;;35.67;;
21786;SDS011;11055;50.870;4.316;2022-12-10T06:25:25;101.63;;;37.00;;
21786;SDS011;11055;50.870;4.316;2022-12-10T06:27:50;93.72;;;34.25;;
21786;SDS011;11055;50.870;4.316;2022-12-10T06:30:16;121.32;;;33.47;;
21786;SDS011;11055;50.870;4.316;2022-12-10T06:32:42;97.50;;;35.03;;
21786;SDS011;11055;50.870;4.316;2022-12-10T06:35:08;99.57;;;35.47;;
21786;SDS011;11055;50.870;4.316;2022-12-10T06:37:34;98.50;;;34.72;;
21786;SDS011;11055;50.870;4.316;2022-12-10T06:40:00;94.97;;;35.33;;
21786;SDS011;11055;50.870;4.316;2022-12-10T06:42:26;120.70;;;35.15;;
21786;SDS011;11055;50.870;4.316;2022-12-10T06:44:52;101.68;;;34.97;;
21786;SDS011;11055;50.870;4.316;2022-12-10T06:47:17;98.25;;;36.03;;
21786;SDS011;11055;50.870;4.316;2022-12-10T06:49:43;112.30;;;37.10;;
21786;SDS011;11055;50.870;4.316;2022-12-10T06:52:09;98.43;;;34.45;;
21786;SDS011;11055;50.870;4.316;2022-12-10T06:54:34;105.75;;;34.08;;
21786;SDS011;11055;50.870;4.316;2022-12-10T06:57:00;94.55;;;34.17;;
21786;SDS011;11055;50.870;4.316;2022-12-10T06:59:26;86.53;;;33.20;;
21786;SDS011;11055;50.870;4.316;2022-12-10T07:01:52;93.63;;;33.55;;
21786;SDS011;11055;50.870;4.316;2022-12-10T07:04:17;118.00;;;35.70;;
21786;SDS011;11055;50.870;4.316;2022-12-10T07:06:43;108.05;;;34.08;;
21786;SDS011;11055;50.870;4.316;2022-12-10T07:09:09;105.82;;;36.35;;
21786;SDS011;11055;50.870;4.316;2022-12-10T07:11:34;97.93;;;36.03;;
21786;SDS011;11055;50.870;4.316;2022-12-10T07:14:01;84.07;;;31.55;;
21786;SDS011;11055;50.870;4.316;2022-12-10T07:16:27;93.55;;;33.65;;
21786;SDS011;11055;50.870;4.316;2022-12-10T07:18:55;93.88;;;34.53;;
21786;SDS011;11055;50.870;4.316;2022-12-10T07:21:23;102.20;;;31.40;;
21786;SDS011;11055;50.870;4.316;2022-12-10T07:23:50;83.05;;;32.67;;
21786;SDS011;11055;50.870;4.316;2022-12-10T07:26:16;95.05;;;34.42;;
21786;SDS011;11055;50.870;4.316;2022-12-10T07:28:42;97.78;;;36.70;;
21786;SDS011;11055;50.870;4.316;2022-12-10T07:31:08;103.97;;;36.95;;
21786;SDS011;11055;50.870;4.316;2022-12-10T07:33:34;95.05;;;32.97;;
21786;SDS011;11055;50.870;4.316;2022-12-10T07:36:08;88.65;;;32.10;;
21786;SDS011;11055;50.870;4.316;2022-12-10T07:38:35;93.90;;;34.47;;
21786;SDS011;11055;50.870;4.316;2022-12-10T07:41:06;93.15;;;30.88;;
21786;SDS011;11055;50.870;4.316;2022-12-10T07:43:36;90.22;;;33.67;;
21786;SDS011;11055;50.870;4.316;2022-12-10T07:46:14;102.13;;;33.33;;
21786;SDS011;11055;50.870;4.316;2022-12-10T07:48:45;98.28;;;33.38;;
21786;SDS011;11055;50.870;4.316;2022-12-10T07:51:12;99.88;;;35.15;;
21786;SDS011;11055;50.870;4.316;2022-12-10T07:53:39;92.72;;;34.50;;
21786;SDS011;11055;50.870;4.316;2022-12-10T07:56:05;99.65;;;35.25;;
21786;SDS011;11055;50.870;4.316;2022-12-10T07:58:31;107.35;;;35.42;;
21786;SDS011;11055;50.870;4.316;2022-12-10T08:00:57;95.22;;;33.33;;
21786;SDS011;11055;50.870;4.316;2022-12-10T08:03:23;94.10;;;32.08;;
21786;SDS011;11055;50.870;4.316;2022-12-10T08:05:49;98.35;;;33.00;;
21786;SDS011;11055;50.870;4.316;2022-12-10T08:08:25;88.50;;;35.40;;
21786;SDS011;11055;50.870;4.316;2022-12-10T08:10:51;106.75;;;32.97;;
21786;SDS011;11055;50.870;4.316;2022-12-10T08:13:16;94.50;;;33.17;;
21786;SDS011;11055;50.870;4.316;2022-12-10T08:15:42;92.18;;;34.05;;
21786;SDS011;11055;50.870;4.316;2022-12-10T08:18:07;94.80;;;33.75;;
21786;SDS011;11055;50.870;4.316;2022-12-10T08:20:33;88.38;;;31.92;;
21786;SDS011;11055;50.870;4.316;2022-12-10T08:23:00;86.88;;;31.80;;
21786;SDS011;11055;50.870;4.316;2022-12-10T08:25:26;82.55;;;32.35;;
21786;SDS011;11055;50.870;4.316;2022-12-10T08:27:52;83.47;;;30.88;;
21786;SDS011;11055;50.870;4.316;2022-12-10T08:30:17;88.72;;;30.88;;
21786;SDS011;11055;50.870;4.316;2022-12-10T08:32:43;94.68;;;30.50;;
21786;SDS011;11055;50.870;4.316;2022-12-10T08:35:09;94.82;;;32.05;;
21786;SDS011;11055;50.870;4.316;2022-12-10T08:37:34;85.60;;;31.75;;
21786;SDS011;11055;50.870;4.316;2022-12-10T08:40:00;89.03;;;31.15;;
21786;SDS011;11055;50.870;4.316;2022-12-10T08:42:26;86.80;;;30.20;;
21786;SDS011;11055;50.870;4.316;2022-12-10T08:44:51;86.72;;;31.42;;
21786;SDS011;11055;50.870;4.316;2022-12-10T08:47:17;78.88;;;30.88;;
21786;SDS011;11055;50.870;4.316;2022-12-10T08:49:42;76.20;;;28.27;;
21786;SDS011;11055;50.870;4.316;2022-12-10T08:52:08;83.10;;;31.55;;
21786;SDS011;11055;50.870;4.316;2022-12-10T08:54:33;82.25;;;31.15;;
21786;SDS011;11055;50.870;4.316;2022-12-10T08:56:59;83.72;;;30.23;;
21786;SDS011;11055;50.870;4.316;2022-12-10T08:59:25;89.00;;;31.67;;
21786;SDS011;11055;50.870;4.316;2022-12-10T09:01:51;93.88;;;31.10;;
21786;SDS011;11055;50.870;4.316;2022-12-10T09:04:17;73.63;;;28.08;;
21786;SDS011;11055;50.870;4.316;2022-12-10T09:06:43;89.32;;;31.50;;
21786;SDS011;11055;50.870;4.316;2022-12-10T09:09:08;89.30;;;34.75;;
21786;SDS011;11055;50.870;4.316;2022-12-10T09:11:34;82.13;;;30.73;;
21786;SDS011;11055;50.870;4.316;2022-12-10T09:14:00;78.53;;;28.85;;
21786;SDS011;11055;50.870;4.316;2022-12-10T09:16:27;80.68;;;28.05;;
21786;SDS011;11055;50.870;4.316;2022-12-10T09:18:58;77.80;;;30.40;;
21786;SDS011;11055;50.870;4.316;2022-12-10T09:21:25;130.55;;;58.40;;
21786;SDS011;11055;50.870;4.316;2022-12-10T09:23:51;80.70;;;29.38;;
21786;SDS011;11055;50.870;4.316;2022-12-10T09:26:17;90.28;;;37.13;;
21786;SDS011;11055;50.870;4.316;2022-12-10T09:28:43;79.07;;;29.23;;
21786;SDS011;11055;50.870;4.316;2022-12-10T09:31:10;70.97;;;26.25;;
21786;SDS011;11055;50.870;4.316;2022-12-10T09:33:36;78.88;;;29.42;;
21786;SDS011;11055;50.870;4.316;2022-12-10T09:36:03;77.40;;;30.42;;
21786;SDS011;11055;50.870;4.316;2022-12-10T09:38:31;76.03;;;27.30;;
21786;SDS011;11055;50.870;4.316;2022-12-10T09:41:03;78.68;;;29.90;;
21786;SDS011;11055;50.870;4.316;2022-12-10T09:51:54;73.38;;;28.38;;
21786;SDS011;11055;50.870;4.316;2022-12-10T09:54:24;80.90;;;30.83;;
21786;SDS011;11055;50.870;4.316;2022-12-10T09:56:53;67.97;;;26.95;;
21786;SDS011;11055;50.870;4.316;2022-12-10T09:59:22;74.75;;;29.00;;
21786;SDS011;11055;50.870;4.316;2022-12-10T10:04:42;74.63;;;30.85;;
21786;SDS011;11055;50.870;4.316;2022-12-10T10:07:09;78.78;;;29.27;;
21786;SDS011;11055;50.870;4.316;2022-12-10T10:09:51;82.60;;;30.77;;
21786;SDS011;11055;50.870;4.316;2022-12-10T10:12:22;83.03;;;30.50;;
21786;SDS011;11055;50.870;4.316;2022-12-10T10:14:48;83.55;;;30.88;;
21786;SDS011;11055;50.870;4.316;2022-12-10T10:17:31;73.38;;;29.63;;
21786;SDS011;11055;50.870;4.316;2022-12-10T10:20:00;72.22;;;28.52;;
21786;SDS011;11055;50.870;4.316;2022-12-10T10:22:26;74.75;;;28.85;;
21786;SDS011;11055;50.870;4.316;2022-12-10T10:24:52;72.55;;;29.17;;
21786;SDS011;11055;50.870;4.316;2022-12-10T10:27:27;86.78;;;33.35;;
21786;SDS011;11055;50.870;4.316;2022-12-10T10:29:56;78.78;;;30.23;;
21786;SDS011;11055;50.870;4.316;2022-12-10T10:33:07;75.95;;;30.95;;
21786;SDS011;11055;50.870;4.316;2022-12-10T10:35:26;84.13;;;31.15;;
21786;SDS011;11055;50.870;4.316;2022-12-10T10:40:33;85.97;;;30.80;;
21786;SDS011;11055;50.870;4.316;2022-12-10T10:43:05;85.32;;;31.55;;
21786;SDS011;11055;50.870;4.316;2022-12-10T10:45:47;79.13;;;28.92;;
21786;SDS011;11055;50.870;4.316;2022-12-10T10:48:16;76.97;;;31.15;;
21786;SDS011;11055;50.870;4.316;2022-12-10T10:50:48;88.50;;;32.05;;
21786;SDS011;11055;50.870;4.316;2022-12-10T10:53:21;76.70;;;29.92;;
21786;SDS011;11055;50.870;4.316;2022-12-10T10:55:49;82.38;;;30.75;;
21786;SDS011;11055;50.870;4.316;2022-12-10T10:58:20;72.88;;;29.70;;
21786;SDS011;11055;50.870;4.316;2022-12-10T11:01:20;84.63;;;32.03;;
21786;SDS011;11055;50.870;4.316;2022-12-10T11:03:44;79.93;;;30.67;;
21786;SDS011;11055;50.870;4.316;2022-12-10T11:06:12;81.65;;;28.77;;
21786;SDS011;11055;50.870;4.316;2022-12-10T11:08:38;82.95;;;28.73;;
21786;SDS011;11055;50.870;4.316;2022-12-10T11:11:17;78.35;;;30.35;;
21786;SDS011;11055;50.870;4.316;2022-12-10T11:13:45;75.07;;;28.50;;
21786;SDS011;11055;50.870;4.316;2022-12-10T11:18:41;59.72;;;25.25;;
21786;SDS011;11055;50.870;4.316;2022-12-10T11:21:31;61.25;;;23.98;;
21786;SDS011;11055;50.870;4.316;2022-12-10T11:23:58;63.65;;;25.45;;
21786;SDS011;11055;50.870;4.316;2022-12-10T11:26:31;67.25;;;26.60;;
21786;SDS011;11055;50.870;4.316;2022-12-10T11:35:07;70.03;;;27.02;;
21786;SDS011;11055;50.870;4.316;2022-12-10T12:14:02;55.25;;;23.85;;
21786;SDS011;11055;50.870;4.316;2022-12-10T12:19:17;55.78;;;23.13;;
21786;SDS011;11055;50.870;4.316;2022-12-10T12:21:48;52.33;;;20.75;;
21786;SDS011;11055;50.870;4.316;2022-12-10T12:24:17;61.53;;;28.35;;
21786;SDS011;11055;50.870;4.316;2022-12-10T12:26:54;61.20;;;26.13;;
21786;SDS011;11055;50.870;4.316;2022-12-10T12:29:27;63.80;;;24.92;;
21786;SDS011;11055;50.870;4.316;2022-12-10T12:32:19;65.32;;;26.23;;
21786;SDS011;11055;50.870;4.316;2022-12-10T12:34:51;59.50;;;24.48;;
21786;SDS011;11055;50.870;4.316;2022-12-10T12:37:27;55.95;;;23.67;;
21786;SDS011;11055;50.870;4.316;2022-12-10T12:42:30;59.25;;;23.95;;
21786;SDS011;11055;50.870;4.316;2022-12-10T12:45:11;60.33;;;24.77;;
21786;SDS011;11055;50.870;4.316;2022-12-10T12:48:21;57.70;;;24.90;;
21786;SDS011;11055;50.870;4.316;2022-12-10T12:53:15;56.72;;;25.25;;
21786;SDS011;11055;50.870;4.316;2022-12-10T13:01:24;56.97;;;23.52;;
21786;SDS011;11055;50.870;4.316;2022-12-10T13:04:00;56.63;;;23.05;;
21786;SDS011;11055;50.870;4.316;2022-12-10T13:06:28;51.95;;;24.30;;
21786;SDS011;11055;50.870;4.316;2022-12-10T13:24:21;57.90;;;24.23;;
21786;SDS011;11055;50.870;4.316;2022-12-10T13:32:17;51.10;;;22.77;;
21786;SDS011;11055;50.870;4.316;2022-12-10T13:34:43;56.30;;;23.27;;
21786;SDS011;11055;50.870;4.316;2022-12-10T13:39:46;53.72;;;23.48;;
21786;SDS011;11055;50.870;4.316;2022-12-10T13:45:04;56.80;;;24.50;;
21786;SDS011;11055;50.870;4.316;2022-12-10T13:47:50;50.70;;;22.33;;
21786;SDS011;11055;50.870;4.316;2022-12-10T13:50:35;53.05;;;22.55;;
21786;SDS011;11055;50.870;4.316;2022-12-10T14:06:42;49.47;;;21.63;;
21786;SDS011;11055;50.870;4.316;2022-12-10T14:09:14;49.72;;;22.10;;
21786;SDS011;11055;50.870;4.316;2022-12-10T14:11:49;52.97;;;22.35;;
21786;SDS011;11055;50.870;4.316;2022-12-10T14:14:30;47.10;;;21.73;;
21786;SDS011;11055;50.870;4.316;2022-12-10T14:17:05;47.45;;;21.20;;
21786;SDS011;11055;50.870;4.316;2022-12-10T14:19:36;54.53;;;21.70;;
21786;SDS011;11055;50.870;4.316;2022-12-10T14:22:06;52.70;;;21.98;;
21786;SDS011;11055;50.870;4.316;2022-12-10T14:24:34;50.65;;;21.92;;
21786;SDS011;11055;50.870;4.316;2022-12-10T14:27:05;87.78;;;39.85;;
21786;SDS011;11055;50.870;4.316;2022-12-10T14:29:50;47.58;;;21.52;;
21786;SDS011;11055;50.870;4.316;2022-12-10T14:32:18;53.33;;;21.88;;
21786;SDS011;11055;50.870;4.316;2022-12-10T14:34:52;51.30;;;21.05;;
21786;SDS011;11055;50.870;4.316;2022-12-10T14:37:22;47.85;;;20.00;;
21786;SDS011;11055;50.870;4.316;2022-12-10T14:39:50;51.38;;;22.08;;
21786;SDS011;11055;50.870;4.316;2022-12-10T14:42:17;47.97;;;20.35;;
21786;SDS011;11055;50.870;4.316;2022-12-10T14:44:43;48.60;;;18.80;;
21786;SDS011;11055;50.870;4.316;2022-12-10T14:47:18;50.60;;;20.40;;
21786;SDS011;11055;50.870;4.316;2022-12-10T14:49:46;52.03;;;21.45;;
21786;SDS011;11055;50.870;4.316;2022-12-10T14:52:17;55.22;;;21.60;;
21786;SDS011;11055;50.870;4.316;2022-12-10T14:54:45;55.67;;;21.48;;
21786;SDS011;11055;50.870;4.316;2022-12-10T14:57:30;56.08;;;22.23;;
21786;SDS011;11055;50.870;4.316;2022-12-10T15:00:06;52.60;;;21.30;;
21786;SDS011;11055;50.870;4.316;2022-12-10T15:02:39;57.03;;;23.33;;
21786;SDS011;11055;50.870;4.316;2022-12-10T15:05:21;57.45;;;23.70;;
21786;SDS011;11055;50.870;4.316;2022-12-10T15:08:03;52.55;;;22.83;;
21786;SDS011;11055;50.870;4.316;2022-12-10T15:10:35;60.42;;;23.30;;
21786;SDS011;11055;50.870;4.316;2022-12-10T15:13:07;65.50;;;23.52;;
21786;SDS011;11055;50.870;4.316;2022-12-10T15:15:41;58.35;;;22.63;;
21786;SDS011;11055;50.870;4.316;2022-12-10T15:23:20;58.25;;;23.50;;
21786;SDS011;11055;50.870;4.316;2022-12-10T15:25:52;52.33;;;22.45;;
21786;SDS011;11055;50.870;4.316;2022-12-10T15:28:36;56.55;;;23.60;;
21786;SDS011;11055;50.870;4.316;2022-12-10T15:33:45;54.08;;;22.80;;
21786;SDS011;11055;50.870;4.316;2022-12-10T15:36:18;59.17;;;24.52;;
21786;SDS011;11055;50.870;4.316;2022-12-10T15:39:12;59.78;;;23.40;;
21786;SDS011;11055;50.870;4.316;2022-12-10T15:41:54;57.55;;;24.33;;
21786;SDS011;11055;50.870;4.316;2022-12-10T15:49:35;54.53;;;21.75;;
21786;SDS011;11055;50.870;4.316;2022-12-10T15:52:01;53.38;;;23.67;;
21786;SDS011;11055;50.870;4.316;2022-12-10T15:54:37;56.33;;;23.70;;
21786;SDS011;11055;50.870;4.316;2022-12-10T15:57:14;55.05;;;23.15;;
21786;SDS011;11055;50.870;4.316;2022-12-10T15:59:41;56.63;;;24.25;;
21786;SDS011;11055;50.870;4.316;2022-12-10T16:02:19;54.63;;;23.88;;
21786;SDS011;11055;50.870;4.316;2022-12-10T16:05:01;53.97;;;22.17;;
21786;SDS011;11055;50.870;4.316;2022-12-10T16:07:38;53.67;;;23.52;;
21786;SDS011;11055;50.870;4.316;2022-12-10T16:10:04;49.85;;;23.25;;
21786;SDS011;11055;50.870;4.316;2022-12-10T16:12:31;49.42;;;22.58;;
21786;SDS011;11055;50.870;4.316;2022-12-10T16:14:59;52.90;;;24.48;;
21786;SDS011;11055;50.870;4.316;2022-12-10T16:17:26;51.35;;;22.63;;
21786;SDS011;11055;50.870;4.316;2022-12-10T16:19:53;52.65;;;24.63;;
21786;SDS011;11055;50.870;4.316;2022-12-10T16:22:23;57.38;;;28.10;;
21786;SDS011;11055;50.870;4.316;2022-12-10T16:24:48;81.15;;;38.47;;
21786;SDS011;11055;50.870;4.316;2022-12-10T16:27:14;61.15;;;29.20;;
21786;SDS011;11055;50.870;4.316;2022-12-10T16:29:41;46.15;;;22.23;;
21786;SDS011;11055;50.870;4.316;2022-12-10T16:32:08;51.83;;;24.38;;
21786;SDS011;11055;50.870;4.316;2022-12-10T16:34:35;53.50;;;23.58;;
21786;SDS011;11055;50.870;4.316;2022-12-10T16:37:01;48.72;;;25.83;;
21786;SDS011;11055;50.870;4.316;2022-12-10T16:39:27;64.53;;;32.60;;
21786;SDS011;11055;50.870;4.316;2022-12-10T16:41:54;71.15;;;38.65;;
21786;SDS011;11055;50.870;4.316;2022-12-10T16:44:20;57.33;;;27.58;;
21786;SDS011;11055;50.870;4.316;2022-12-10T16:46:45;52.60;;;25.13;;
21786;SDS011;11055;50.870;4.316;2022-12-10T16:49:12;53.42;;;24.33;;
21786;SDS011;11055;50.870;4.316;2022-12-10T16:51:37;45.92;;;22.77;;
21786;SDS011;11055;50.870;4.316;2022-12-10T16:54:04;49.60;;;24.05;;
21786;SDS011;11055;50.870;4.316;2022-12-10T16:56:30;49.05;;;22.58;;
21786;SDS011;11055;50.870;4.316;2022-12-10T16:58:55;55.45;;;27.63;;
21786;SDS011;11055;50.870;4.316;2022-12-10T17:01:25;46.05;;;25.27;;
21786;SDS011;11055;50.870;4.316;2022-12-10T17:06:19;47.92;;;24.33;;
21786;SDS011;11055;50.870;4.316;2022-12-10T17:08:46;50.40;;;25.30;;
21786;SDS011;11055;50.870;4.316;2022-12-10T17:11:19;53.33;;;25.58;;